createdAt,value
2022-10-19T00:01:07.367Z,78.45
2022-10-19T00:03:35.156Z,78.57
2022-10-19T00:06:17.995Z,78.63
2022-10-19T00:08:45.299Z,78.86
2022-10-19T00:11:12.521Z,78.99
2022-10-19T00:13:39.637Z,79.00
2022-10-19T00:16:17.320Z,79.00
2022-10-19T00:18:45.182Z,79.00
2022-10-19T00:21:15.055Z,79.21
2022-10-19T00:23:42.224Z,78.90
2022-10-19T00:26:09.300Z,79.09
2022-10-19T00:28:36.598Z,79.36
2022-10-19T00:31:05.451Z,79.27
2022-10-19T00:33:32.620Z,79.34
2022-10-19T00:35:59.526Z,79.45
2022-10-19T00:38:26.631Z,79.35
2022-10-19T00:40:53.665Z,79.38
2022-10-19T00:43:26.093Z,79.38
2022-10-19T00:45:53.122Z,79.25
2022-10-19T00:48:26.828Z,79.52
2022-10-19T00:50:54.518Z,79.46
2022-10-19T00:53:24.286Z,79.65
2022-10-19T00:55:51.417Z,79.52
2022-10-19T00:58:18.368Z,79.66
2022-10-19T01:03:21.069Z,79.81
2022-10-19T01:05:47.962Z,79.67
2022-10-19T01:08:14.842Z,79.57
2022-10-19T01:10:52.577Z,79.54
2022-10-19T01:13:38.047Z,79.59
2022-10-19T01:16:30.128Z,79.57
2022-10-19T01:19:20.241Z,79.59
2022-10-19T01:22:24.727Z,79.49
2022-10-19T01:25:09.865Z,79.49
2022-10-19T01:27:48.542Z,79.71
2022-10-19T01:30:41.597Z,79.42
2022-10-19T01:33:37.004Z,79.35
2022-10-19T01:36:17.602Z,79.46
2022-10-19T01:38:52.904Z,79.43
2022-10-19T01:41:19.811Z,79.56
2022-10-19T01:44:11.694Z,79.40
2022-10-19T01:46:39.759Z,79.51
2022-10-19T01:49:39.268Z,79.46
2022-10-19T01:52:07.238Z,79.61
2022-10-19T01:54:39.937Z,79.34
2022-10-19T01:57:08.848Z,79.54
2022-10-19T01:59:35.884Z,79.23
2022-10-19T02:02:03.432Z,79.23
2022-10-19T02:04:30.478Z,79.26
2022-10-19T02:06:57.443Z,79.29
2022-10-19T02:09:24.322Z,79.09
2022-10-19T02:11:57.005Z,79.05
2022-10-19T02:14:26.905Z,79.16
2022-10-19T02:17:15.272Z,79.24
2022-10-19T02:19:42.821Z,79.14
2022-10-19T02:22:09.934Z,79.40
2022-10-19T02:24:36.827Z,79.00
2022-10-19T02:27:05.655Z,79.14
2022-10-19T02:29:33.458Z,78.93
2022-10-19T02:32:00.809Z,79.11
2022-10-19T02:34:27.788Z,79.02
2022-10-19T02:36:55.076Z,78.88
2022-10-19T02:39:22.049Z,79.07
2022-10-19T02:42:16.543Z,79.05
2022-10-19T02:44:53.619Z,79.09
2022-10-19T02:47:22.871Z,79.15
2022-10-19T02:49:49.986Z,79.01
2022-10-19T02:52:17.327Z,79.10
2022-10-19T02:54:44.641Z,78.88
2022-10-19T02:57:17.242Z,78.82
2022-10-19T02:59:44.347Z,78.65
2022-10-19T03:02:11.291Z,78.92
2022-10-19T03:04:38.289Z,79.07
2022-10-19T03:07:05.215Z,78.74
2022-10-19T03:09:32.438Z,79.08
2022-10-19T03:11:59.320Z,78.97
2022-10-19T03:14:26.228Z,78.90
2022-10-19T03:16:53.177Z,79.10
2022-10-19T03:19:20.057Z,79.30
2022-10-19T03:21:47.285Z,79.35
2022-10-19T03:24:14.301Z,79.08
2022-10-19T03:26:41.173Z,79.28
2022-10-19T03:29:08.034Z,79.21
2022-10-19T03:31:35.030Z,79.07
2022-10-19T03:34:02.211Z,79.31
2022-10-19T03:36:31.172Z,79.13
2022-10-19T03:39:04.017Z,79.19
2022-10-19T03:41:32.402Z,79.23
2022-10-19T03:46:27.166Z,79.13
2022-10-19T03:48:54.436Z,79.13
2022-10-19T03:51:23.446Z,79.36
2022-10-19T03:54:02.289Z,79.11
2022-10-19T03:56:30.523Z,79.01
2022-10-19T03:58:58.254Z,79.18
2022-10-19T04:01:27.737Z,79.37
2022-10-19T04:03:59.477Z,79.12
2022-10-19T04:06:28.272Z,79.38
2022-10-19T04:08:55.167Z,79.18
2022-10-19T04:11:24.026Z,79.50
2022-10-19T04:13:52.220Z,79.20
2022-10-19T04:16:20.380Z,79.24
2022-10-19T04:18:47.562Z,79.21
2022-10-19T04:21:35.047Z,79.49
2022-10-19T04:24:07.930Z,79.17
2022-10-19T04:26:38.691Z,79.37
2022-10-19T04:29:05.751Z,79.42
2022-10-19T04:31:32.760Z,79.30
2022-10-19T04:33:59.750Z,79.47
2022-10-19T04:36:26.741Z,79.57
2022-10-19T04:38:53.668Z,79.66
2022-10-19T04:41:21.614Z,79.55
2022-10-19T04:43:48.915Z,79.60
2022-10-19T04:46:17.910Z,79.35
2022-10-19T04:48:45.582Z,79.29
2022-10-19T04:51:12.790Z,79.34
2022-10-19T04:53:40.537Z,79.20
2022-10-19T04:56:09.180Z,79.56
2022-10-19T04:58:36.095Z,79.34
2022-10-19T05:01:17.682Z,79.27
2022-10-19T05:03:45.021Z,79.15
2022-10-19T05:06:12.956Z,79.55
2022-10-19T05:08:40.154Z,79.33
2022-10-19T05:11:09.316Z,79.25
2022-10-19T05:13:36.208Z,79.62
2022-10-19T05:16:05.240Z,79.44
2022-10-19T05:18:32.834Z,79.58
2022-10-19T05:21:07.322Z,79.51
2022-10-19T05:23:34.431Z,79.65
2022-10-19T05:26:08.986Z,79.54
2022-10-19T05:28:36.337Z,79.48
2022-10-19T05:31:10.544Z,79.64
2022-10-19T05:33:37.821Z,79.64
2022-10-19T05:36:17.979Z,79.76
2022-10-19T05:38:46.026Z,79.71
2022-10-19T05:41:13.524Z,79.61
2022-10-19T05:43:41.627Z,79.88
2022-10-19T05:46:13.585Z,79.80
2022-10-19T05:48:40.807Z,79.90
2022-10-19T05:51:10.130Z,79.73
2022-10-19T05:56:28.740Z,79.74
2022-10-19T05:58:56.812Z,79.84
2022-10-19T06:01:23.716Z,79.84
2022-10-19T06:03:55.355Z,80.04
2022-10-19T06:06:22.759Z,79.88
2022-10-19T06:08:50.764Z,79.95
2022-10-19T06:11:25.319Z,80.00
2022-10-19T06:13:55.613Z,80.13
2022-10-19T06:16:24.141Z,80.11
2022-10-19T06:18:52.109Z,80.10
2022-10-19T06:21:23.692Z,80.03
2022-10-19T06:23:52.495Z,80.26
2022-10-19T06:26:23.091Z,80.23
2022-10-19T06:28:51.043Z,80.11
2022-10-19T06:31:18.707Z,80.06
2022-10-19T06:33:49.216Z,80.21
2022-10-19T06:36:20.409Z,79.95
2022-10-19T06:38:48.641Z,80.29
2022-10-19T06:41:15.803Z,80.58
2022-10-19T06:43:43.664Z,80.59
2022-10-19T06:46:20.230Z,80.53
2022-10-19T06:49:05.424Z,80.38
2022-10-19T06:51:34.227Z,80.65
2022-10-19T06:54:01.355Z,80.78
2022-10-19T06:56:28.556Z,80.71
2022-10-19T06:58:58.556Z,80.81
2022-10-19T07:01:26.100Z,80.84
2022-10-19T07:03:53.801Z,80.83
2022-10-19T07:06:21.486Z,80.85
2022-10-19T07:08:48.717Z,80.93
2022-10-19T07:11:19.134Z,81.09
2022-10-19T07:13:48.933Z,81.21
2022-10-19T07:16:20.634Z,81.13
2022-10-19T07:18:49.979Z,81.17
2022-10-19T07:21:22.907Z,81.17
2022-10-19T07:23:50.478Z,81.43
2022-10-19T07:26:23.505Z,81.26
2022-10-19T07:28:51.391Z,81.25
2022-10-19T07:31:21.660Z,81.28
2022-10-19T07:34:01.022Z,81.24
2022-10-19T07:36:30.582Z,81.41
2022-10-19T07:38:58.017Z,81.47
2022-10-19T07:41:26.409Z,81.51
2022-10-19T07:43:54.007Z,81.44
2022-10-19T07:46:25.509Z,81.54
2022-10-19T07:48:52.950Z,81.61
2022-10-19T07:51:20.393Z,81.69
2022-10-19T07:53:47.805Z,81.82
2022-10-19T07:56:20.091Z,81.79
2022-10-19T07:58:47.519Z,81.93
2022-10-19T08:01:19.034Z,81.94
2022-10-19T08:06:34.342Z,81.99
2022-10-19T08:09:01.303Z,82.34
2022-10-19T08:11:30.930Z,82.30
2022-10-19T08:14:02.909Z,82.36
2022-10-19T08:16:40.638Z,82.45
2022-10-19T08:19:12.243Z,82.56
2022-10-19T08:21:40.681Z,82.56
2022-10-19T08:24:08.324Z,82.55
2022-10-19T08:26:40.195Z,82.81
2022-10-19T08:29:08.971Z,82.77
2022-10-19T08:31:36.012Z,82.77
2022-10-19T08:34:03.540Z,82.81
2022-10-19T08:36:31.491Z,82.74
2022-10-19T08:38:58.648Z,82.74
2022-10-19T08:41:38.066Z,82.55
2022-10-19T08:44:33.219Z,82.18
2022-10-19T08:47:03.424Z,82.04
2022-10-19T08:49:31.393Z,81.91
2022-10-19T08:52:00.948Z,81.30
2022-10-19T08:54:38.401Z,81.49
2022-10-19T08:57:31.486Z,81.42
2022-10-19T09:00:09.890Z,80.97
2022-10-19T09:02:36.968Z,80.78
2022-10-19T09:05:40.437Z,80.47
2022-10-19T09:08:13.119Z,80.38
2022-10-19T09:10:49.656Z,80.14
2022-10-19T09:13:21.328Z,80.11
2022-10-19T09:15:50.717Z,80.37
2022-10-19T09:18:28.615Z,79.96
2022-10-19T09:21:30.989Z,79.88
2022-10-19T09:24:06.884Z,79.59
2022-10-19T09:26:46.042Z,79.56
2022-10-19T09:29:18.986Z,79.05
2022-10-19T09:31:55.736Z,78.71
2022-10-19T09:34:30.579Z,78.14
2022-10-19T09:36:58.363Z,77.87
2022-10-19T09:39:29.308Z,77.71
2022-10-19T09:42:19.160Z,77.26
2022-10-19T09:44:48.745Z,77.05
2022-10-19T09:47:31.124Z,76.90
2022-10-19T09:50:21.641Z,76.49
2022-10-19T09:52:50.095Z,76.39
2022-10-19T09:55:17.428Z,76.43
2022-10-19T09:57:52.058Z,76.28
2022-10-19T10:00:23.154Z,75.81
2022-10-19T10:02:54.525Z,76.00
2022-10-19T10:05:39.056Z,75.95
2022-10-19T10:08:13.638Z,75.36
2022-10-19T10:10:44.493Z,75.36
2022-10-19T10:13:23.825Z,75.04
2022-10-19T10:15:54.946Z,74.79
2022-10-19T10:18:21.832Z,74.70
2022-10-19T10:21:25.700Z,74.65
2022-10-19T10:24:25.438Z,74.42
2022-10-19T10:26:54.959Z,74.30
2022-10-19T10:29:30.293Z,74.45
2022-10-19T10:32:09.494Z,74.04
2022-10-19T10:34:49.856Z,73.93
2022-10-19T10:37:42.902Z,73.81
2022-10-19T10:40:23.838Z,73.74
2022-10-19T10:42:51.691Z,73.81
2022-10-19T10:45:40.601Z,73.73
2022-10-19T10:48:27.997Z,73.38
2022-10-19T10:50:55.515Z,73.42
2022-10-19T10:53:35.782Z,73.15
2022-10-19T10:56:04.320Z,73.05
2022-10-19T10:58:43.635Z,72.72
2022-10-19T11:01:20.324Z,72.86
2022-10-19T11:03:56.501Z,72.99
2022-10-19T11:09:17.757Z,72.74
2022-10-19T11:11:46.611Z,72.84
2022-10-19T11:14:27.262Z,72.58
2022-10-19T11:16:54.975Z,72.75
2022-10-19T11:19:41.018Z,72.56
2022-10-19T11:22:15.920Z,72.60
2022-10-19T11:24:57.877Z,72.47
2022-10-19T11:27:27.607Z,72.42
2022-10-19T11:30:14.455Z,72.23
2022-10-19T11:32:47.293Z,72.34
2022-10-19T11:35:29.451Z,72.26
2022-10-19T11:38:18.719Z,72.38
2022-10-19T11:41:17.882Z,72.20
2022-10-19T11:44:02.377Z,71.97
2022-10-19T11:46:35.154Z,72.21
2022-10-19T11:49:29.895Z,71.88
2022-10-19T11:52:01.874Z,72.15
2022-10-19T11:54:50.013Z,72.07
2022-10-19T11:57:21.721Z,71.89
2022-10-19T12:00:15.103Z,72.42
2022-10-19T12:03:12.765Z,72.21
2022-10-19T12:06:20.183Z,72.26
2022-10-19T12:09:27.482Z,72.15
2022-10-19T12:12:10.982Z,72.53
2022-10-19T12:14:41.030Z,71.71
2022-10-19T12:17:10.548Z,71.99
2022-10-19T12:19:40.988Z,71.73
2022-10-19T12:22:10.237Z,71.99
2022-10-19T12:24:37.147Z,71.82
2022-10-19T12:27:04.108Z,71.80
2022-10-19T12:29:34.566Z,71.46
2022-10-19T12:32:01.931Z,71.92
2022-10-19T12:34:50.202Z,71.84
2022-10-19T12:37:35.074Z,71.75
2022-10-19T12:40:20.845Z,71.79
2022-10-19T12:43:14.179Z,71.54
2022-10-19T12:46:03.085Z,71.18
2022-10-19T12:48:30.553Z,71.38
2022-10-19T12:51:05.990Z,71.18
2022-10-19T12:53:38.359Z,71.25
2022-10-19T12:56:18.765Z,71.57
2022-10-19T12:58:54.838Z,71.06
2022-10-19T13:01:26.248Z,70.86
2022-10-19T13:04:06.289Z,70.82
2022-10-19T13:06:34.646Z,70.79
2022-10-19T13:09:06.804Z,70.67
2022-10-19T13:14:58.424Z,70.70
2022-10-19T13:17:34.773Z,70.43
2022-10-19T13:20:14.261Z,70.86
2022-10-19T13:23:07.380Z,70.30
2022-10-19T13:25:35.489Z,70.32
2022-10-19T13:28:11.305Z,70.53
2022-10-19T13:30:44.263Z,70.56
2022-10-19T13:33:29.270Z,70.04
2022-10-19T13:35:59.280Z,70.06
2022-10-19T13:38:44.698Z,69.86
2022-10-19T13:41:22.761Z,69.72
2022-10-19T13:44:12.185Z,69.98
2022-10-19T13:47:01.285Z,69.70
2022-10-19T13:49:47.252Z,69.91
2022-10-19T13:52:43.002Z,69.53
2022-10-19T13:55:31.650Z,69.76
2022-10-19T13:58:18.775Z,69.75
2022-10-19T14:01:26.654Z,69.56
2022-10-19T14:04:18.828Z,69.51
2022-10-19T14:06:58.253Z,69.16
2022-10-19T14:09:47.592Z,69.16
2022-10-19T14:12:23.516Z,68.91
2022-10-19T14:14:53.850Z,68.79
2022-10-19T14:17:30.145Z,68.63
2022-10-19T14:19:58.296Z,68.75
2022-10-19T14:22:29.899Z,68.68
2022-10-19T14:25:02.092Z,69.22
2022-10-19T14:27:29.099Z,69.21
2022-10-19T14:29:56.012Z,68.75
2022-10-19T14:32:26.561Z,68.91
2022-10-19T14:34:54.709Z,68.60
2022-10-19T14:37:27.880Z,68.90
2022-10-19T14:39:58.950Z,68.96
2022-10-19T14:42:40.956Z,69.22
2022-10-19T14:45:40.321Z,69.07
2022-10-19T14:48:17.284Z,69.08
2022-10-19T14:50:45.800Z,68.92
2022-10-19T14:53:40.478Z,69.22
2022-10-19T14:56:19.612Z,69.11
2022-10-19T14:59:27.088Z,68.80
2022-10-19T15:01:58.597Z,68.77
2022-10-19T15:04:27.965Z,69.05
2022-10-19T15:06:54.856Z,69.01
2022-10-19T15:09:37.072Z,68.52
2022-10-19T15:12:16.105Z,68.63
2022-10-19T15:14:43.116Z,68.61
2022-10-19T15:17:28.177Z,68.77
2022-10-19T15:19:56.240Z,68.79
2022-10-19T15:22:32.582Z,68.91
2022-10-19T15:25:24.910Z,68.48
2022-10-19T15:27:53.779Z,68.94
2022-10-19T15:30:31.476Z,68.79
2022-10-19T15:33:01.355Z,68.77
2022-10-19T15:35:41.077Z,68.81
2022-10-19T15:38:14.879Z,68.95
2022-10-19T15:40:43.609Z,69.37
2022-10-19T15:43:37.859Z,69.30
2022-10-19T15:46:21.741Z,69.11
2022-10-19T15:48:55.337Z,69.20
2022-10-19T15:51:25.625Z,69.32
2022-10-19T15:53:53.869Z,69.25
2022-10-19T15:56:21.706Z,68.97
2022-10-19T15:58:53.063Z,68.90
2022-10-19T16:01:31.446Z,69.34
2022-10-19T16:03:58.678Z,69.04
2022-10-19T16:06:31.800Z,69.37
2022-10-19T16:08:59.148Z,69.51
2022-10-19T16:11:26.992Z,69.31
2022-10-19T16:13:53.909Z,69.17
2022-10-19T16:16:31.542Z,69.16
2022-10-19T16:18:58.654Z,69.29
2022-10-19T16:21:28.934Z,69.33
2022-10-19T16:23:56.141Z,69.31
2022-10-19T16:26:23.068Z,69.45
2022-10-19T16:28:50.189Z,69.40
2022-10-19T16:31:17.595Z,69.85
2022-10-19T16:33:44.696Z,69.90
2022-10-19T16:36:11.912Z,69.98
2022-10-19T16:38:38.939Z,69.84
2022-10-19T16:41:10.173Z,70.06
2022-10-19T16:43:37.481Z,70.04
2022-10-19T16:46:05.113Z,69.89
2022-10-19T16:48:32.424Z,70.19
2022-10-19T16:51:21.373Z,70.27
2022-10-19T16:53:50.776Z,70.57
2022-10-19T16:56:17.949Z,70.48
2022-10-19T16:58:44.973Z,70.62
2022-10-19T17:01:18.988Z,70.69
2022-10-19T17:03:47.184Z,70.63
2022-10-19T17:06:15.024Z,70.78
2022-10-19T17:09:23.337Z,70.58
2022-10-19T17:11:36.522Z,70.97
2022-10-19T17:14:08.657Z,70.74
2022-10-19T17:16:36.616Z,70.89
2022-10-19T17:19:04.631Z,70.96
2022-10-19T17:21:33.600Z,70.97
2022-10-19T17:24:02.215Z,71.05
2022-10-19T17:26:32.101Z,70.73
2022-10-19T17:28:59.472Z,70.95
2022-10-19T17:31:27.308Z,71.06
2022-10-19T17:33:54.571Z,71.26
2022-10-19T17:36:25.406Z,71.10
2022-10-19T17:38:58.597Z,71.35
2022-10-19T17:41:27.040Z,71.40
2022-10-19T17:43:54.577Z,71.37
2022-10-19T17:46:26.395Z,71.55
2022-10-19T17:48:53.783Z,71.26
2022-10-19T17:51:24.453Z,71.72
2022-10-19T17:53:51.636Z,71.72
2022-10-19T17:56:20.970Z,71.69
2022-10-19T17:58:48.702Z,71.70
2022-10-19T18:01:17.344Z,71.82
2022-10-19T18:03:44.530Z,71.96
2022-10-19T18:06:16.186Z,72.18
2022-10-19T18:08:45.701Z,71.84
2022-10-19T18:11:18.790Z,72.03
2022-10-19T18:13:46.017Z,72.29
2022-10-19T18:16:17.646Z,72.25
2022-10-19T18:18:46.344Z,72.15
2022-10-19T18:21:14.871Z,72.43
2022-10-19T18:23:42.049Z,72.42
2022-10-19T18:26:22.153Z,72.66
2022-10-19T18:28:50.011Z,72.46
2022-10-19T18:31:21.669Z,72.76
2022-10-19T18:33:50.757Z,72.84
2022-10-19T18:36:18.014Z,72.63
2022-10-19T18:38:45.025Z,72.98
2022-10-19T18:44:05.135Z,73.30
2022-10-19T18:46:37.232Z,72.94
2022-10-19T18:49:06.951Z,72.98
2022-10-19T18:51:34.088Z,73.26
2022-10-19T18:54:01.111Z,73.19
2022-10-19T18:56:29.498Z,73.25
2022-10-19T18:58:57.084Z,73.14
2022-10-19T19:01:29.400Z,73.10
2022-10-19T19:04:01.374Z,73.24
2022-10-19T19:06:29.897Z,73.13
2022-10-19T19:08:58.733Z,73.08
2022-10-19T19:11:30.702Z,73.01
2022-10-19T19:14:05.151Z,73.28
2022-10-19T19:16:38.042Z,73.21
2022-10-19T19:19:05.962Z,73.04
2022-10-19T19:21:35.824Z,73.28
2022-10-19T19:24:06.224Z,72.97
2022-10-19T19:26:37.747Z,73.10
2022-10-19T19:29:04.854Z,72.76
2022-10-19T19:31:31.868Z,73.25
2022-10-19T19:34:02.924Z,73.12
2022-10-19T19:36:30.099Z,73.01
2022-10-19T19:38:59.096Z,73.14
2022-10-19T19:41:26.257Z,72.93
2022-10-19T19:43:53.740Z,73.17
2022-10-19T19:46:20.734Z,73.07
2022-10-19T19:48:49.413Z,73.44
2022-10-19T19:51:19.910Z,73.13
2022-10-19T19:53:48.644Z,73.40
2022-10-19T19:56:17.377Z,73.38
2022-10-19T19:58:45.460Z,73.49
2022-10-19T20:01:19.030Z,73.63
2022-10-19T20:03:46.789Z,73.45
2022-10-19T20:06:15.641Z,73.57
2022-10-19T20:08:42.932Z,73.85
2022-10-19T20:11:12.855Z,73.68
2022-10-19T20:13:40.392Z,73.73
2022-10-19T20:16:13.836Z,73.79
2022-10-19T20:18:44.194Z,73.66
2022-10-19T20:21:11.268Z,73.92
2022-10-19T20:23:38.965Z,73.98
2022-10-19T20:26:06.074Z,73.91
2022-10-19T20:28:34.487Z,73.96
2022-10-19T20:31:07.492Z,73.97
2022-10-19T20:33:36.625Z,73.99
2022-10-19T20:36:18.623Z,74.07
2022-10-19T20:38:49.943Z,74.14
2022-10-19T20:41:18.447Z,74.19
2022-10-19T20:43:45.775Z,74.33
2022-10-19T20:46:21.175Z,74.12
2022-10-19T20:48:49.014Z,74.21
2022-10-19T20:51:19.777Z,74.29
2022-10-19T20:53:49.892Z,74.55
2022-10-19T20:56:21.692Z,74.56
2022-10-19T20:58:54.863Z,74.50
2022-10-19T21:01:22.303Z,74.54
2022-10-19T21:03:55.422Z,74.47
2022-10-19T21:06:26.481Z,74.57
2022-10-19T21:08:53.825Z,74.25
2022-10-19T21:11:27.679Z,74.42
2022-10-19T21:13:56.356Z,74.45
2022-10-19T21:16:24.267Z,74.49
2022-10-19T21:18:51.179Z,74.65
2022-10-19T21:21:41.937Z,74.73
2022-10-19T21:24:22.190Z,74.54
2022-10-19T21:29:17.354Z,74.69
2022-10-19T21:31:48.923Z,74.79
2022-10-19T21:34:28.552Z,74.69
2022-10-19T21:36:56.177Z,74.77
2022-10-19T21:39:23.325Z,74.88
2022-10-19T21:41:51.026Z,74.76
2022-10-19T21:44:18.897Z,74.74
2022-10-19T21:46:47.597Z,74.65
2022-10-19T21:49:14.486Z,74.92
2022-10-19T21:51:54.037Z,74.91
2022-10-19T21:54:27.683Z,75.00
2022-10-19T21:56:56.669Z,74.85
2022-10-19T21:59:24.460Z,75.13
2022-10-19T22:01:51.413Z,75.05
2022-10-19T22:04:18.780Z,75.24
2022-10-19T22:06:47.684Z,75.21
2022-10-19T22:09:17.118Z,75.35
2022-10-19T22:11:44.521Z,75.37
2022-10-19T22:14:12.827Z,75.66
2022-10-19T22:16:41.078Z,75.51
2022-10-19T22:19:08.122Z,75.45
2022-10-19T22:21:35.507Z,75.51
2022-10-19T22:24:08.216Z,75.39
2022-10-19T22:26:48.066Z,75.55
2022-10-19T22:29:15.045Z,75.52
2022-10-19T22:31:41.969Z,75.27
2022-10-19T22:34:11.754Z,75.51
2022-10-19T22:36:38.755Z,75.61
2022-10-19T22:39:05.711Z,75.57
2022-10-19T22:42:28.578Z,75.54
2022-10-19T22:44:55.464Z,75.32
2022-10-19T22:47:22.385Z,75.40
2022-10-19T22:49:50.149Z,75.55
2022-10-19T22:52:17.614Z,75.52
2022-10-19T22:54:44.558Z,75.56
2022-10-19T22:57:14.522Z,75.66
2022-10-19T22:59:42.319Z,75.77
2022-10-19T23:02:09.501Z,75.67
2022-10-19T23:04:36.478Z,75.70
2022-10-19T23:07:03.404Z,75.61
2022-10-19T23:09:30.356Z,75.83
2022-10-19T23:11:57.323Z,75.88
2022-10-19T23:14:24.206Z,76.17
2022-10-19T23:16:51.081Z,75.92
2022-10-19T23:19:17.972Z,75.99
2022-10-19T23:21:44.845Z,75.85
2022-10-19T23:24:11.769Z,76.15
2022-10-19T23:26:38.793Z,76.01
2022-10-19T23:29:05.681Z,76.13
2022-10-19T23:31:33.572Z,75.83
2022-10-19T23:34:00.555Z,75.84
2022-10-19T23:36:28.662Z,76.03
2022-10-19T23:38:56.792Z,75.66
2022-10-19T23:41:23.803Z,75.76
2022-10-19T23:43:50.719Z,76.00
2022-10-19T23:46:17.659Z,75.82
2022-10-19T23:48:44.802Z,75.91
2022-10-19T23:51:14.088Z,75.91
2022-10-19T23:53:43.027Z,76.07
2022-10-19T23:56:17.726Z,76.13
2022-10-19T23:58:44.986Z,76.03
